Washington, DC (20077)

8:32 PM EST on December 24, 2014 (GMT -0500)
Eckington Pl, NE | Change Station
CLOSE
Current Station
Personal Weather Station
Location: Washington, DC
Elevation: 90 ft
Nearby Weather Stations

Elev 90 ft 38.91 °N, 77.01 °W | Updated 4 minutes ago

Overcast
Overcast
52.8 °F
Feels Like 52.8 °F
N
4.0
Wind Variable Wind from SE
Gusts 10.0 mph

Today
High -- | Low -- °F
--% Chance of Precip.
Yesterday
High -- | Low -- °F
Precip. -- in
7:24 AM 4:50 PM
Waxing Crescent, 12% visible
Pressure 29.61 in
Visibility 2.5 miles
Clouds Overcast 400 ft
Dew Point 52 °F
Humidity 97%
Rainfall -999.00 in
Snow Depth Not available.
UV 0 out of 12
Pollen .10 out of 12
Air Quality Not available.
Flu Activity Not available.
SPECI KDCA 250118Z 20006KT 2 1/2SM -DZ BR OVC004 12/09 A2961 RMK AO2 DZB08 P0000

More Conditions Fewer Conditions

Pressure 29.61 in
Visibility 2.5 miles
Clouds Overcast 400 ft
Dew Point 52 °F
Humidity 97%
Rainfall -999.00 in
Snow Depth Not available.
UV 0 out of 12
Pollen .10 out of 12
Air Quality Not available.
Flu Activity Not available.
SPECI KDCA 250118Z 20006KT 2 1/2SM -DZ BR OVC004 12/09 A2961 RMK AO2 DZB08 P0000

More Conditions Fewer Conditions

Nowcast | as of 6:16 PM EST on December 24, 2014

Areas of fog with patchy dense fog will continue through this evening. Visibilities will be reduced to 2 mile at times...with isolated areas dropping to a half mile or less. The fog is expected to dissipate later tonight as a cold front moves through. Motorists are asked to exercise caution for rapidly changing visibilities.

×

10-Day Weather Forecast

Almanac

Astronomy

Dec. 24, 2014 Rise Set
Actual Time
Civil Twilight
Nautical Twilight
Astronomical Twilight
Moon
Length of Visible Light
Length of Day
Tomorrow will be .
, % of the Moon is Illuminated

Today's Extremes

State Highs State Lows

Community

WunderPhotos

Upload Photos

1,780,205 photos uploaded!

WunderBlogs® & News

Nearby

Air Quality

  Air Quality AQ Index Pollutant
Not available.

Snow Depth

Station Depth Elevation

Earthquake Activity

City Distance Mag. Time & Date
Minimum magnitude displayed is 2.5.

Coastal Water Temperatures

Place Temperature

Nearby Weather Stations